Toyofukumaru — JD2177 — position and weather

sailwx.info

Track history (hours):
 
Tides and Currents Weather Stations Pressure Air Temp Water Temp Dewpoint Dewpoint Depression Visibility Wind Speed Wind Dir Waves Ship Positions

Toyofukumaru

Last reported at 2015-Jan-27 16:33 UTC. Time now 2015-Jan-27 16:55 UTC.
Position N 34°50' E 139°31'.

Length 165 m; draft 6.2 m.

Type: Cargo ship. MMSI: 431200688.

Date/timePositionNaut miles runAvg speedWind from/ knotsBaromVisibWave heightAir tempDewpointWater temp
2015-Jan-27 16:33N 34°50' E 139°31'233 7.7
2015-Jan-26 10:17N 33°53' E 134°57'1419.4
2015-Jan-26 09:33N 34°07' E 134°57'2020.3
2015-Jan-26 08:33N 34°27' E 135°01'1111.0
2015-Jan-26 07:33N 34°34' E 134°51'  
2015-Jan-23 22:10N 34°34' E 134°48'1218.9
2015-Jan-23 21:33N 34°37' E 135°02'1717.0
2015-Jan-23 20:34N 34°20' E 135°00'1919.1
2015-Jan-23 19:33N 34°01' E 135°00'221 7.6
2015-Jan-22 14:32N 34°49' E 139°21'2020.1
2015-Jan-22 13:33N 35°03' E 139°38'1515.0
2015-Jan-22 12:34N 35°17' E 139°45'8 7.8
2015-Jan-22 11:33N 35°23' E 139°39'0 0.0
2015-Jan-22 10:33N 35°23' E 139°39'0 0.0
2015-Jan-22 09:33N 35°23' E 139°39'0 0.0
2015-Jan-22 08:33N 35°23' E 139°39'0 0.0
2015-Jan-22 07:33N 35°23' E 139°39'0 0.0
2015-Jan-22 06:33N 35°23' E 139°39'0 0.0
2015-Jan-22 05:33N 35°23' E 139°39'3 3.0
2015-Jan-22 04:33N 35°24' E 139°42'2019.4
2015-Jan-22 03:33N 35°35' E 140°03'8 1.0
2015-Jan-21 19:33N 35°31' E 139°55'1514.6
2015-Jan-21 18:33N 35°19' E 139°44'1414.4
2015-Jan-21 17:33N 35°05' E 139°42'2019.5
2015-Jan-21 16:33N 34°52' E 139°24'226 7.5
2015-Jan-20 10:31N 33°52' E 134°59'1919.5
2015-Jan-20 09:33N 34°11' E 134°59'1919.1
2015-Jan-20 08:33N 34°30' E 135°02'1010.0
2015-Jan-20 07:33N 34°34' E 134°51'  
2015-Jan-18 01:26N 34°31' E 134°39'1820.9
2015-Jan-18 00:33N 34°38' E 135°00'1717.4
2015-Jan-17 23:33N 34°20' E 135°02'2019.4
2015-Jan-17 22:33N 34°01' E 135°01'  
Track history (hours):
 
Tides and Currents Weather Stations Pressure Air Temp Water Temp Dewpoint Dewpoint Depression Visibility Wind Speed Wind Dir Waves Ship Positions

Toyofukumaru

Last reported at 2015-Jan-27 16:33 UTC. Time now 2015-Jan-27 16:55 UTC.
Position N 34°50' E 139°31'.

Length 165 m; draft 6.2 m.

Type: Cargo ship. MMSI: 431200688.

Date/timePositionNaut miles runAvg speedWind from/ knotsBaromVisibWave heightAir tempDewpointWater temp
2015-Jan-27 16:33N 34°50' E 139°31'233 7.7
2015-Jan-26 10:17N 33°53' E 134°57'1419.4
2015-Jan-26 09:33N 34°07' E 134°57'2020.3
2015-Jan-26 08:33N 34°27' E 135°01'1111.0
2015-Jan-26 07:33N 34°34' E 134°51'  
2015-Jan-23 22:10N 34°34' E 134°48'1218.9
2015-Jan-23 21:33N 34°37' E 135°02'1717.0
2015-Jan-23 20:34N 34°20' E 135°00'1919.1
2015-Jan-23 19:33N 34°01' E 135°00'221 7.6
2015-Jan-22 14:32N 34°49' E 139°21'2020.1
2015-Jan-22 13:33N 35°03' E 139°38'1515.0
2015-Jan-22 12:34N 35°17' E 139°45'8 7.8
2015-Jan-22 11:33N 35°23' E 139°39'0 0.0
2015-Jan-22 10:33N 35°23' E 139°39'0 0.0
2015-Jan-22 09:33N 35°23' E 139°39'0 0.0
2015-Jan-22 08:33N 35°23' E 139°39'0 0.0
2015-Jan-22 07:33N 35°23' E 139°39'0 0.0
2015-Jan-22 06:33N 35°23' E 139°39'0 0.0
2015-Jan-22 05:33N 35°23' E 139°39'3 3.0
2015-Jan-22 04:33N 35°24' E 139°42'2019.4
2015-Jan-22 03:33N 35°35' E 140°03'8 1.0
2015-Jan-21 19:33N 35°31' E 139°55'1514.6
2015-Jan-21 18:33N 35°19' E 139°44'1414.4
2015-Jan-21 17:33N 35°05' E 139°42'2019.5
2015-Jan-21 16:33N 34°52' E 139°24'226 7.5
2015-Jan-20 10:31N 33°52' E 134°59'1919.5
2015-Jan-20 09:33N 34°11' E 134°59'1919.1
2015-Jan-20 08:33N 34°30' E 135°02'1010.0
2015-Jan-20 07:33N 34°34' E 134°51'  
2015-Jan-18 01:26N 34°31' E 134°39'1820.9
2015-Jan-18 00:33N 34°38' E 135°00'1717.4
2015-Jan-17 23:33N 34°20' E 135°02'2019.4
2015-Jan-17 22:33N 34°01' E 135°01'  

Dump ship's entire track history